Terminal Aerodrome Forecast
Issued by NWS

Home | Current Version | Previous Version | Text Only | Print | Product List | Glossary On
Versions: 1 2 3 4 5 6 7 8 9 10 11 12 13 14 15 16 17
000
FTUS44 KLIX 112335
TAFHUM
TAF
KHUM 112335Z 1200/1224 24006KT P6SM SKC
     FM120900 28007KT P6SM SKC WS020/30035KT
     FM121100 30008KT P6SM SKC
     FM121400 34010KT P6SM SKC=

USA.gov is the U.S. government's official web portal to all federal, state and local government web resources and services.